createdAt,value
2022-12-25T00:00:35.640Z,8.73
2022-12-25T00:03:02.801Z,8.71
2022-12-25T00:05:29.678Z,8.71
2022-12-25T00:07:56.722Z,8.71
2022-12-25T00:10:24.229Z,8.67
2022-12-25T00:12:51.128Z,8.68
2022-12-25T00:15:18.130Z,8.64
2022-12-25T00:17:44.940Z,8.58
2022-12-25T00:20:11.919Z,8.58
2022-12-25T00:22:38.833Z,8.59
2022-12-25T00:25:05.881Z,8.54
2022-12-25T00:27:34.071Z,8.48
2022-12-25T00:30:01.740Z,8.46
2022-12-25T00:32:28.552Z,8.47
2022-12-25T00:34:55.586Z,8.42
2022-12-25T00:37:22.557Z,8.41
2022-12-25T00:39:49.403Z,8.35
2022-12-25T00:42:16.330Z,8.39
2022-12-25T00:44:43.181Z,8.45
2022-12-25T00:47:10.040Z,8.45
2022-12-25T00:49:36.890Z,8.37
2022-12-25T00:52:03.987Z,8.34
2022-12-25T00:54:30.836Z,8.26
2022-12-25T00:56:57.764Z,8.26
2022-12-25T00:59:24.729Z,8.28
2022-12-25T01:01:51.913Z,8.21
2022-12-25T01:04:19.012Z,8.14
2022-12-25T01:06:45.817Z,8.13
2022-12-25T01:09:12.540Z,8.14
2022-12-25T01:11:39.489Z,8.20
2022-12-25T01:14:06.479Z,8.24
2022-12-25T01:16:33.553Z,8.24
2022-12-25T01:19:00.485Z,8.19
2022-12-25T01:21:27.470Z,8.15
2022-12-25T01:23:54.683Z,8.19
2022-12-25T01:26:23.953Z,8.17
2022-12-25T01:28:51.617Z,8.18
2022-12-25T01:31:21.269Z,8.22
2022-12-25T01:33:48.671Z,8.19
2022-12-25T01:36:25.859Z,8.23
2022-12-25T01:38:54.722Z,8.24
2022-12-25T01:41:23.875Z,8.17
2022-12-25T01:44:00.603Z,8.11
2022-12-25T01:46:27.700Z,8.05
2022-12-25T01:48:58.127Z,8.05
2022-12-25T01:51:38.196Z,8.03
2022-12-25T01:54:09.853Z,7.96
2022-12-25T01:56:39.165Z,7.98
2022-12-25T01:59:08.233Z,7.96
2022-12-25T02:01:35.621Z,8.03
2022-12-25T02:04:26.601Z,7.97
2022-12-25T02:06:53.812Z,7.92
2022-12-25T02:09:20.656Z,7.94
2022-12-25T02:11:47.772Z,7.88
2022-12-25T02:14:14.856Z,7.82
2022-12-25T02:16:57.670Z,7.88
2022-12-25T02:19:41.659Z,7.90
2022-12-25T02:22:33.230Z,7.97
2022-12-25T02:25:33.717Z,7.85
2022-12-25T02:28:13.877Z,7.91
2022-12-25T02:30:56.591Z,7.90
2022-12-25T02:33:34.093Z,7.80
2022-12-25T02:36:06.129Z,7.74
2022-12-25T02:38:40.637Z,7.86
2022-12-25T02:41:15.680Z,7.79
2022-12-25T02:43:46.542Z,7.73
2022-12-25T02:46:17.745Z,7.72
2022-12-25T02:48:58.888Z,7.67
2022-12-25T02:51:28.984Z,7.69
2022-12-25T02:53:58.356Z,7.68
2022-12-25T02:56:29.815Z,7.65
2022-12-25T02:58:56.740Z,7.63
2022-12-25T03:01:28.510Z,7.63
2022-12-25T03:03:59.190Z,7.62
2022-12-25T03:06:29.429Z,7.58
2022-12-25T03:09:00.415Z,7.56
2022-12-25T03:11:27.308Z,7.62
2022-12-25T03:13:58.101Z,7.60
2022-12-25T03:16:25.023Z,7.59
2022-12-25T03:18:55.528Z,7.65
2022-12-25T03:21:22.482Z,7.60
2022-12-25T03:23:53.368Z,7.56
2022-12-25T03:26:20.205Z,7.64
2022-12-25T03:28:47.058Z,7.58
2022-12-25T03:31:51.650Z,7.59
2022-12-25T03:34:19.768Z,7.57
2022-12-25T03:37:08.272Z,7.58
2022-12-25T03:39:44.125Z,7.60
2022-12-25T03:42:13.471Z,7.58
2022-12-25T03:45:19.260Z,7.52
2022-12-25T03:47:49.387Z,7.52
2022-12-25T03:50:37.202Z,7.47
2022-12-25T03:53:10.987Z,7.42
2022-12-25T03:55:39.631Z,7.39
2022-12-25T03:58:17.554Z,7.36
2022-12-25T04:00:44.492Z,7.37
2022-12-25T04:03:11.364Z,7.38
2022-12-25T04:05:38.341Z,7.33
2022-12-25T04:08:05.218Z,7.36
2022-12-25T04:10:32.068Z,7.40
2022-12-25T04:12:58.934Z,7.30
2022-12-25T04:15:25.994Z,7.29
2022-12-25T04:17:52.966Z,7.31
2022-12-25T04:20:19.908Z,7.36
2022-12-25T04:22:46.752Z,7.33
2022-12-25T04:25:13.749Z,7.35
2022-12-25T04:27:40.520Z,7.31
2022-12-25T04:30:08.896Z,7.27
2022-12-25T04:32:35.873Z,7.26
2022-12-25T04:35:02.994Z,7.27
2022-12-25T04:37:29.857Z,7.25
2022-12-25T04:39:56.701Z,7.22
2022-12-25T04:42:23.515Z,7.18
2022-12-25T04:44:50.386Z,7.14
2022-12-25T04:47:17.110Z,7.12
2022-12-25T04:49:43.919Z,7.10
2022-12-25T04:52:10.726Z,7.18
2022-12-25T04:54:39.127Z,7.15
2022-12-25T04:57:06.004Z,7.12
2022-12-25T04:59:32.813Z,7.11
2022-12-25T05:01:59.894Z,7.06
2022-12-25T05:04:26.768Z,7.07
2022-12-25T05:06:54.290Z,7.08
2022-12-25T05:09:21.250Z,7.06
2022-12-25T05:11:48.042Z,7.04
2022-12-25T05:14:15.686Z,7.06
2022-12-25T05:16:42.674Z,7.07
2022-12-25T05:19:09.796Z,6.99
2022-12-25T05:21:37.120Z,6.93
2022-12-25T05:24:04.121Z,7.05
2022-12-25T05:26:30.980Z,7.02
2022-12-25T05:28:59.443Z,6.80
2022-12-25T05:31:26.355Z,6.77
2022-12-25T05:33:53.277Z,6.71
2022-12-25T05:36:20.448Z,6.70
2022-12-25T05:38:47.266Z,6.64
2022-12-25T05:41:14.134Z,6.64
2022-12-25T05:43:41.081Z,6.58
2022-12-25T05:46:10.338Z,6.55
2022-12-25T05:48:38.105Z,6.53
2022-12-25T05:51:11.027Z,6.59
2022-12-25T05:53:38.998Z,6.54
2022-12-25T05:56:08.220Z,6.40
2022-12-25T05:58:38.752Z,6.54
2022-12-25T06:01:11.859Z,6.40
2022-12-25T06:03:38.861Z,6.37
2022-12-25T06:06:06.163Z,6.36
2022-12-25T06:08:33.082Z,6.23
2022-12-25T06:11:02.904Z,6.24
2022-12-25T06:13:29.723Z,6.32
2022-12-25T06:15:56.615Z,6.29
2022-12-25T06:18:23.573Z,6.37
2022-12-25T06:20:50.564Z,6.27
2022-12-25T06:23:17.387Z,6.18
2022-12-25T06:25:44.180Z,6.13
2022-12-25T06:28:10.964Z,6.16
2022-12-25T06:30:37.803Z,6.22
2022-12-25T06:33:04.679Z,6.26
2022-12-25T06:35:31.518Z,6.37
2022-12-25T06:37:58.312Z,6.29
2022-12-25T06:40:25.148Z,6.21
2022-12-25T06:42:52.262Z,6.22
2022-12-25T06:45:19.059Z,6.34
2022-12-25T06:47:45.935Z,6.31
2022-12-25T06:50:12.751Z,6.28
2022-12-25T06:52:39.651Z,6.31
2022-12-25T06:55:06.940Z,6.20
2022-12-25T06:57:33.748Z,6.24
2022-12-25T07:00:00.610Z,6.23
2022-12-25T07:02:28.280Z,6.17
2022-12-25T07:04:55.377Z,6.19
2022-12-25T07:07:22.258Z,6.16
2022-12-25T07:09:49.417Z,6.16
2022-12-25T07:12:20.422Z,6.15
2022-12-25T07:14:47.719Z,6.12
2022-12-25T07:17:19.597Z,6.14
2022-12-25T07:19:47.366Z,6.19
2022-12-25T07:22:15.624Z,6.20
2022-12-25T07:24:43.002Z,6.24
2022-12-25T07:27:10.425Z,6.26
2022-12-25T07:29:37.199Z,6.29
2022-12-25T07:32:04.497Z,6.28
2022-12-25T07:34:32.252Z,6.34
2022-12-25T07:36:59.078Z,6.37
2022-12-25T07:39:25.881Z,6.43
2022-12-25T07:41:52.711Z,6.47
2022-12-25T07:44:19.764Z,6.47
2022-12-25T07:46:47.180Z,6.52
2022-12-25T07:49:14.096Z,6.55
2022-12-25T07:51:40.891Z,6.56
2022-12-25T07:54:07.909Z,6.57
2022-12-25T07:56:34.834Z,6.60
2022-12-25T07:59:01.851Z,6.59
2022-12-25T08:01:29.133Z,6.61
2022-12-25T08:03:59.042Z,6.65
2022-12-25T08:06:32.610Z,6.63
2022-12-25T08:09:06.569Z,6.63
2022-12-25T08:11:34.066Z,6.69
2022-12-25T08:14:01.047Z,6.74
2022-12-25T08:16:28.209Z,6.78
2022-12-25T08:18:55.144Z,6.80
2022-12-25T08:21:22.193Z,6.80
2022-12-25T08:23:49.248Z,6.81
2022-12-25T08:26:20.048Z,6.84
2022-12-25T08:28:48.327Z,6.84
2022-12-25T08:31:24.278Z,6.87
2022-12-25T08:33:54.756Z,6.91
2022-12-25T08:36:22.604Z,6.93
2022-12-25T08:38:50.775Z,6.97
2022-12-25T08:41:18.322Z,6.99
2022-12-25T08:43:45.921Z,7.04
2022-12-25T08:46:13.134Z,7.06
2022-12-25T08:48:43.272Z,7.09
2022-12-25T08:51:16.014Z,7.12
2022-12-25T08:53:44.528Z,7.17
2022-12-25T08:56:12.507Z,7.20
2022-12-25T08:58:40.198Z,7.23
2022-12-25T09:01:08.127Z,7.28
2022-12-25T09:03:35.680Z,7.30
2022-12-25T09:06:07.672Z,7.33
2022-12-25T09:08:35.360Z,7.37
2022-12-25T09:11:07.794Z,7.40
2022-12-25T09:13:36.094Z,7.41
2022-12-25T09:16:11.539Z,7.43
2022-12-25T09:18:39.064Z,7.47
2022-12-25T09:21:11.335Z,7.48
2022-12-25T09:23:39.628Z,7.47
2022-12-25T09:26:08.108Z,7.50
2022-12-25T09:28:35.112Z,7.50
2022-12-25T09:31:02.831Z,7.52
2022-12-25T09:33:29.705Z,7.55
2022-12-25T09:36:05.413Z,7.56
2022-12-25T09:38:33.280Z,7.56
2022-12-25T09:41:18.027Z,7.56
2022-12-25T09:43:50.378Z,7.60
2022-12-25T09:46:21.964Z,7.61
2022-12-25T09:49:03.143Z,7.64
2022-12-25T09:51:34.487Z,7.66
2022-12-25T09:54:10.968Z,7.67
2022-12-25T09:56:37.994Z,7.71
2022-12-25T09:59:26.416Z,7.73
2022-12-25T10:02:27.119Z,7.71
2022-12-25T10:05:18.499Z,7.75
2022-12-25T10:07:51.231Z,7.76
2022-12-25T10:10:18.061Z,7.76
2022-12-25T10:12:50.630Z,7.80
2022-12-25T10:15:43.498Z,7.83
2022-12-25T10:18:31.049Z,7.89
2022-12-25T10:21:00.813Z,7.90
2022-12-25T10:23:27.551Z,7.95
2022-12-25T10:25:54.783Z,8.01
2022-12-25T10:28:26.247Z,8.05
2022-12-25T10:30:56.209Z,8.10
2022-12-25T10:33:23.768Z,8.10
2022-12-25T10:35:50.645Z,8.13
2022-12-25T10:38:19.555Z,8.12
2022-12-25T10:41:06.486Z,8.15
2022-12-25T10:43:42.033Z,8.17
2022-12-25T10:46:13.953Z,8.20
2022-12-25T10:48:46.725Z,8.23
2022-12-25T10:51:13.945Z,8.26
2022-12-25T10:53:43.513Z,8.26
2022-12-25T10:56:18.855Z,8.28
2022-12-25T10:58:45.726Z,8.30
2022-12-25T11:01:13.620Z,8.31
2022-12-25T11:03:52.210Z,8.33
2022-12-25T11:06:25.263Z,8.34
2022-12-25T11:08:56.930Z,8.37
2022-12-25T11:11:25.034Z,8.42
2022-12-25T11:13:56.186Z,8.43
2022-12-25T11:16:36.726Z,8.45
2022-12-25T11:19:22.870Z,8.46
2022-12-25T11:21:55.926Z,8.47
2022-12-25T11:24:27.190Z,8.48
2022-12-25T11:26:57.888Z,8.50
2022-12-25T11:29:45.842Z,8.54
2022-12-25T11:32:33.535Z,8.54
2022-12-25T11:35:02.557Z,8.56
2022-12-25T11:37:43.588Z,8.60
2022-12-25T11:40:20.763Z,8.63
2022-12-25T11:42:57.576Z,8.65
2022-12-25T11:45:48.377Z,8.68
2022-12-25T11:48:23.598Z,8.70
2022-12-25T11:50:55.936Z,8.74
2022-12-25T11:53:30.763Z,8.75
2022-12-25T11:56:21.660Z,8.77
2022-12-25T11:58:53.720Z,8.78
2022-12-25T12:01:44.337Z,8.81
2022-12-25T12:04:27.425Z,8.78
2022-12-25T12:07:14.119Z,8.82
2022-12-25T12:09:54.685Z,8.85
2022-12-25T12:12:34.352Z,8.90
2022-12-25T12:15:08.952Z,8.94
2022-12-25T12:17:35.837Z,8.96
2022-12-25T12:20:24.443Z,8.99
2022-12-25T12:22:51.494Z,9.02
2022-12-25T12:25:19.611Z,9.03
2022-12-25T12:27:52.155Z,9.05
2022-12-25T12:30:35.280Z,9.08
2022-12-25T12:33:07.824Z,9.11
2022-12-25T12:35:38.809Z,9.15
2022-12-25T12:38:15.018Z,9.19
2022-12-25T12:40:52.610Z,9.21
2022-12-25T12:43:48.574Z,9.23
2022-12-25T12:46:30.704Z,9.23
2022-12-25T12:49:24.809Z,9.28
2022-12-25T12:52:07.356Z,9.31
2022-12-25T12:54:56.815Z,9.36
2022-12-25T12:57:28.081Z,9.44
2022-12-25T12:59:59.966Z,9.47
2022-12-25T13:03:07.703Z,9.51
2022-12-25T13:05:45.275Z,9.54
2022-12-25T13:08:40.059Z,9.57
2022-12-25T13:11:26.700Z,9.58
2022-12-25T13:13:57.078Z,9.59
2022-12-25T13:16:41.407Z,9.62
2022-12-25T13:19:17.384Z,9.63
2022-12-25T13:22:16.287Z,9.64
2022-12-25T13:24:43.123Z,9.64
2022-12-25T13:27:35.954Z,9.64
2022-12-25T13:30:19.172Z,9.64
2022-12-25T13:32:46.328Z,9.64
2022-12-25T13:35:14.544Z,9.62
2022-12-25T13:37:42.343Z,9.64
2022-12-25T13:40:23.430Z,9.62
2022-12-25T13:42:55.299Z,9.63
2022-12-25T13:45:26.862Z,9.63
2022-12-25T13:47:55.840Z,9.62
2022-12-25T13:50:26.885Z,9.59
2022-12-25T13:52:55.756Z,9.61
2022-12-25T13:55:29.995Z,9.57
2022-12-25T13:57:59.902Z,9.58
2022-12-25T14:01:00.838Z,9.56
2022-12-25T14:03:36.041Z,9.52
2022-12-25T14:06:06.812Z,9.52
2022-12-25T14:08:35.850Z,9.50
2022-12-25T14:11:05.777Z,9.49
2022-12-25T14:13:37.559Z,9.49
2022-12-25T14:16:05.752Z,9.47
2022-12-25T14:18:33.418Z,9.46
2022-12-25T14:21:02.635Z,9.43
2022-12-25T14:23:50.348Z,9.42
2022-12-25T14:26:27.593Z,9.35
2022-12-25T14:29:16.559Z,9.34
2022-12-25T14:31:46.222Z,9.33
2022-12-25T14:34:22.655Z,9.30
2022-12-25T14:36:51.662Z,9.27
2022-12-25T14:39:33.798Z,9.24
2022-12-25T14:42:11.275Z,9.24
2022-12-25T14:44:40.074Z,9.18
2022-12-25T14:47:18.897Z,9.16
2022-12-25T14:49:47.149Z,9.14
2022-12-25T14:52:23.335Z,9.10
2022-12-25T14:54:55.614Z,9.08
2022-12-25T14:57:47.345Z,9.03
2022-12-25T15:00:28.276Z,8.99
2022-12-25T15:02:57.717Z,8.96
2022-12-25T15:05:32.124Z,8.98
2022-12-25T15:08:22.729Z,8.94
2022-12-25T15:11:00.387Z,8.90
2022-12-25T15:13:29.379Z,8.85
2022-12-25T15:16:06.259Z,8.79
2022-12-25T15:18:39.686Z,8.77
2022-12-25T15:21:10.444Z,8.75
2022-12-25T15:23:37.297Z,8.74
2022-12-25T15:26:04.111Z,8.72
2022-12-25T15:28:30.903Z,8.67
2022-12-25T15:30:57.791Z,8.64
2022-12-25T15:33:24.625Z,8.58
2022-12-25T15:35:51.445Z,8.56
2022-12-25T15:38:18.442Z,8.55
2022-12-25T15:40:45.285Z,8.50
2022-12-25T15:43:38.761Z,8.48
2022-12-25T15:46:00.715Z,8.45
2022-12-25T15:48:27.652Z,8.45
2022-12-25T15:50:54.505Z,8.44
2022-12-25T15:53:21.502Z,8.39
2022-12-25T15:55:48.394Z,8.38
2022-12-25T15:58:15.229Z,8.33
2022-12-25T16:00:42.025Z,8.27
2022-12-25T16:03:09.088Z,8.29
2022-12-25T16:05:36.138Z,8.25
2022-12-25T16:08:02.929Z,8.18
2022-12-25T16:10:34.847Z,8.03
2022-12-25T16:13:05.473Z,7.96
2022-12-25T16:15:32.330Z,7.84
2022-12-25T16:17:59.234Z,7.90
2022-12-25T16:20:26.110Z,7.90
2022-12-25T16:22:52.911Z,7.80
2022-12-25T16:25:20.102Z,7.62
2022-12-25T16:27:47.066Z,7.65
2022-12-25T16:30:16.582Z,7.66
2022-12-25T16:32:44.198Z,7.52
2022-12-25T16:35:12.061Z,7.42
2022-12-25T16:37:39.563Z,7.31
2022-12-25T16:40:08.746Z,7.35
2022-12-25T16:42:37.154Z,7.27
2022-12-25T16:45:04.875Z,7.31
2022-12-25T16:47:32.052Z,7.25
2022-12-25T16:49:59.245Z,7.17
2022-12-25T16:52:26.149Z,7.11
2022-12-25T16:54:53.103Z,7.15
2022-12-25T16:57:19.979Z,7.18
2022-12-25T16:59:46.850Z,7.12
2022-12-25T17:02:19.701Z,7.08
2022-12-25T17:04:47.254Z,7.08
2022-12-25T17:07:15.543Z,7.01
2022-12-25T17:09:44.599Z,6.89
2022-12-25T17:12:11.760Z,6.91
2022-12-25T17:14:38.659Z,6.74
2022-12-25T17:17:05.601Z,6.80
2022-12-25T17:19:32.694Z,6.82
2022-12-25T17:21:59.767Z,6.77
2022-12-25T17:24:27.767Z,6.77
2022-12-25T17:26:55.180Z,6.77
2022-12-25T17:29:23.102Z,6.77
2022-12-25T17:31:50.951Z,6.74
2022-12-25T17:34:17.848Z,6.72
2022-12-25T17:36:44.765Z,6.74
2022-12-25T17:39:11.786Z,6.61
2022-12-25T17:41:38.976Z,6.57
2022-12-25T17:44:05.821Z,6.54
2022-12-25T17:46:32.917Z,6.53
2022-12-25T17:49:01.461Z,6.41
2022-12-25T17:51:30.397Z,6.48
2022-12-25T17:53:59.975Z,6.45
2022-12-25T17:56:26.890Z,6.31
2022-12-25T17:58:56.291Z,6.31
2022-12-25T18:01:25.241Z,6.32
2022-12-25T18:03:53.025Z,6.22
2022-12-25T18:06:23.019Z,6.28
2022-12-25T18:08:50.411Z,6.24
2022-12-25T18:11:20.916Z,6.33
2022-12-25T18:13:50.125Z,6.25
2022-12-25T18:16:18.074Z,6.18
2022-12-25T18:18:51.535Z,6.16
2022-12-25T18:21:20.087Z,5.92
2022-12-25T18:23:47.768Z,6.02
2022-12-25T18:26:14.590Z,5.86
2022-12-25T18:28:42.219Z,5.71
2022-12-25T18:31:12.988Z,5.85
2022-12-25T18:33:39.881Z,5.82
2022-12-25T18:36:07.173Z,5.74
2022-12-25T18:38:34.070Z,5.65
2022-12-25T18:41:05.747Z,5.52
2022-12-25T18:43:53.961Z,5.56
2022-12-25T18:46:21.646Z,5.49
2022-12-25T18:48:48.705Z,5.44
2022-12-25T18:51:15.666Z,5.48
2022-12-25T18:53:42.667Z,5.39
2022-12-25T18:56:12.667Z,5.32
2022-12-25T18:58:39.995Z,5.18
2022-12-25T19:01:19.229Z,5.47
2022-12-25T19:03:48.372Z,5.36
2022-12-25T19:06:20.782Z,5.17
2022-12-25T19:08:47.987Z,5.28
2022-12-25T19:11:16.107Z,5.25
2022-12-25T19:13:43.627Z,5.17
2022-12-25T19:16:11.410Z,5.13
2022-12-25T19:18:39.639Z,5.25
2022-12-25T19:21:08.504Z,5.15
2022-12-25T19:23:35.913Z,5.10
2022-12-25T19:26:05.088Z,5.09
2022-12-25T19:28:31.952Z,5.03
2022-12-25T19:31:03.236Z,5.04
2022-12-25T19:33:33.876Z,5.02
2022-12-25T19:36:08.349Z,4.97
2022-12-25T19:38:35.385Z,4.95
2022-12-25T19:41:10.668Z,4.86
2022-12-25T19:43:40.460Z,4.87
2022-12-25T19:46:14.851Z,4.89
2022-12-25T19:48:43.110Z,4.75
2022-12-25T19:51:27.888Z,4.82
2022-12-25T19:53:55.523Z,4.91
2022-12-25T19:56:23.851Z,4.92
2022-12-25T19:58:50.905Z,4.82
2022-12-25T20:01:19.974Z,4.74
2022-12-25T20:03:48.466Z,4.74
2022-12-25T20:06:18.460Z,4.74
2022-12-25T20:08:50.239Z,4.71
2022-12-25T20:11:17.725Z,4.71
2022-12-25T20:13:45.547Z,4.71
2022-12-25T20:16:12.896Z,4.70
2022-12-25T20:18:41.129Z,4.77
2022-12-25T20:21:12.499Z,4.77
2022-12-25T20:23:39.756Z,4.77
2022-12-25T20:26:07.145Z,4.84
2022-12-25T20:28:35.496Z,4.85
2022-12-25T20:31:07.042Z,4.82
2022-12-25T20:33:35.721Z,4.87
2022-12-25T20:36:04.140Z,4.88
2022-12-25T20:38:31.773Z,4.92
2022-12-25T20:41:26.309Z,4.96
2022-12-25T20:43:48.919Z,4.79
2022-12-25T20:46:16.055Z,4.89
2022-12-25T20:48:42.953Z,4.93
2022-12-25T20:51:13.804Z,4.90
2022-12-25T20:53:41.545Z,4.91
2022-12-25T20:56:14.631Z,4.88
2022-12-25T20:58:42.286Z,4.83
2022-12-25T21:01:11.717Z,4.86
2022-12-25T21:03:39.086Z,4.93
2022-12-25T21:06:07.686Z,4.86
2022-12-25T21:08:34.867Z,4.86
2022-12-25T21:11:02.644Z,4.74
2022-12-25T21:13:32.526Z,4.70
2022-12-25T21:15:59.848Z,4.74
2022-12-25T21:18:28.342Z,4.76
2022-12-25T21:20:57.396Z,4.56
2022-12-25T21:23:25.413Z,4.64
2022-12-25T21:25:53.016Z,4.74
2022-12-25T21:28:19.890Z,4.68
2022-12-25T21:30:46.718Z,4.67
2022-12-25T21:33:17.013Z,4.65
2022-12-25T21:35:44.156Z,4.56
2022-12-25T21:38:11.163Z,4.33
2022-12-25T21:40:38.475Z,4.30
2022-12-25T21:43:05.946Z,4.17
2022-12-25T21:45:35.872Z,4.06
2022-12-25T21:48:03.586Z,4.00
2022-12-25T21:50:34.628Z,4.17
2022-12-25T21:53:05.346Z,4.02
2022-12-25T21:55:32.554Z,4.15
2022-12-25T21:57:59.305Z,4.08
2022-12-25T22:00:26.219Z,4.13
2022-12-25T22:02:53.185Z,4.18
2022-12-25T22:05:20.051Z,3.92
2022-12-25T22:07:46.910Z,4.01
2022-12-25T22:10:13.735Z,3.97
2022-12-25T22:12:40.757Z,4.05
2022-12-25T22:15:09.458Z,3.96
2022-12-25T22:17:41.481Z,3.92
2022-12-25T22:20:11.011Z,3.69
2022-12-25T22:22:38.026Z,3.69
2022-12-25T22:25:06.233Z,3.69
2022-12-25T22:27:36.314Z,3.68
2022-12-25T22:30:07.871Z,3.73
2022-12-25T22:32:34.723Z,3.74
2022-12-25T22:35:01.452Z,3.73
2022-12-25T22:37:28.449Z,3.62
2022-12-25T22:39:55.385Z,3.54
2022-12-25T22:42:22.177Z,3.54
2022-12-25T22:44:49.004Z,3.68
2022-12-25T22:47:15.796Z,3.82
2022-12-25T22:49:42.624Z,3.89
2022-12-25T22:52:10.152Z,3.90
2022-12-25T22:54:38.143Z,3.74
2022-12-25T22:57:06.179Z,3.90
2022-12-25T22:59:34.071Z,3.80
2022-12-25T23:02:01.234Z,3.75
2022-12-25T23:04:29.363Z,3.68
2022-12-25T23:06:56.564Z,3.83
2022-12-25T23:42:11.046Z,3.58
2022-12-25T23:44:37.960Z,3.39
2022-12-25T23:47:04.853Z,3.50
2022-12-25T23:49:31.767Z,3.50
2022-12-25T23:51:58.749Z,3.44
2022-12-25T23:54:28.538Z,3.43
2022-12-25T23:56:55.956Z,3.44
2022-12-25T23:59:22.934Z,3.48
